Time;durP1;ratioP1;P1;durP2;ratioP2;P2;SDS_P1;SDS_P2;PMS_P1;PMS_P2;Temp;Humidity;BMP_temperature;BMP_pressure;BME280_temperature;BME280_humidity;BME280_pressure;Samples;Min_cycle;Max_cycle;Signal;HPM_P1;HPM_P2
2023/09/08 00:02:13;;;;;;;5.38;4.90;;;;;;;;;;5103624;28;20480;-71
2023/09/08 00:04:40;;;;;;;6.22;5.70;;;;;;;;;;5103091;28;20886;-71
2023/09/08 00:07:07;;;;;;;5.72;5.22;;;;;;;;;;5096115;28;20638;-71
2023/09/08 00:09:34;;;;;;;5.60;5.10;;;;;;;;;;5104028;28;20428;-71
2023/09/08 00:12:03;;;;;;;5.57;5.18;;;;;;;;;;5101681;28;20443;-71
2023/09/08 00:14:30;;;;;;;6.10;5.60;;;;;;;;;;5101533;28;20487;-71
2023/09/08 00:16:57;;;;;;;5.90;5.40;;;;;;;;;;5103531;28;20416;-71
2023/09/08 00:19:24;;;;;;;5.22;4.82;;;;;;;;;;5104448;28;20412;-71
2023/09/08 00:21:51;;;;;;;5.80;5.30;;;;;;;;;;5103192;28;20781;-71
2023/09/08 00:24:18;;;;;;;5.43;5.03;;;;;;;;;;5104498;28;20411;-71
2023/09/08 00:26:46;;;;;;;5.70;5.20;;;;;;;;;;5093004;28;20432;-71
2023/09/08 00:29:14;;;;;;;5.82;5.22;;;;;;;;;;5103934;28;20430;-71
2023/09/08 00:31:41;;;;;;;5.75;5.25;;;;;;;;;;5102689;28;20520;-70
2023/09/08 00:34:08;;;;;;;5.00;4.60;;;;;;;;;;5101498;28;20435;-71
2023/09/08 00:36:35;;;;;;;5.50;4.70;;;;;;;;;;5103518;28;20416;-73
2023/09/08 00:39:03;;;;;;;5.07;4.68;;;;;;;;;;5102901;28;20447;-72
2023/09/08 00:41:30;;;;;;;5.78;5.28;;;;;;;;;;5098533;28;20534;-72
2023/09/08 00:43:57;;;;;;;5.43;4.93;;;;;;;;;;5103111;28;20409;-71
2023/09/08 00:46:27;;;;;;;5.00;4.60;;;;;;;;;;5101548;28;20905;-72
2023/09/08 00:48:54;;;;;;;5.70;5.10;;;;;;;;;;5102524;28;20420;-71
2023/09/08 00:51:22;;;;;;;5.95;5.35;;;;;;;;;;5099686;28;20416;-71
2023/09/08 00:53:50;;;;;;;5.13;4.72;;;;;;;;;;5097289;28;20436;-72
2023/09/08 00:56:17;;;;;;;6.95;5.75;;;;;;;;;;5103710;28;20408;-71
2023/09/08 00:58:44;;;;;;;5.25;4.75;;;;;;;;;;5102795;28;20419;-71
2023/09/08 01:01:11;;;;;;;5.20;4.80;;;;;;;;;;5103285;28;20443;-72
2023/09/08 01:03:39;;;;;;;5.63;5.13;;;;;;;;;;5099038;28;20484;-71
2023/09/08 01:06:07;;;;;;;5.17;4.77;;;;;;;;;;5101903;28;20948;-72
2023/09/08 01:08:35;;;;;;;5.90;5.30;;;;;;;;;;5100259;28;20459;-71
2023/09/08 01:11:03;;;;;;;6.20;5.40;;;;;;;;;;5101566;28;20447;-72
2023/09/08 01:13:30;;;;;;;5.70;5.30;;;;;;;;;;5099862;28;20438;-72
2023/09/08 01:15:57;;;;;;;6.40;5.90;;;;;;;;;;5100386;28;20428;-71
2023/09/08 01:18:24;;;;;;;6.00;5.50;;;;;;;;;;5103807;28;20411;-72
2023/09/08 01:21:15;;;;;;;6.03;5.53;;;;;;;;;;5105968;28;20515;-72
2023/09/08 01:23:49;;;;;;;5.93;5.38;;;;;;;;;;5105893;28;20508;-71
2023/09/08 01:26:19;;;;;;;7.00;5.60;;;;;;;;;;5104945;28;20445;-72
2023/09/08 01:28:46;;;;;;;5.97;5.40;;;;;;;;;;5105444;28;20842;-71
2023/09/08 01:31:14;;;;;;;6.20;5.57;;;;;;;;;;5105064;28;20558;-72
2023/09/08 01:33:42;;;;;;;7.10;5.70;;;;;;;;;;5104074;28;20830;-72
2023/09/08 01:41:49;;;;;;;6.50;5.90;;;;;;;;;;5055798;28;20419;-69
2023/09/08 01:44:16;;;;;;;6.55;6.00;;;;;;;;;;5042509;28;20438;-68
2023/09/08 01:46:43;;;;;;;6.40;5.90;;;;;;;;;;5049719;28;20510;-69
2023/09/08 01:49:10;;;;;;;6.60;6.00;;;;;;;;;;5067310;23;20434;-73
2023/09/08 01:51:37;;;;;;;5.88;5.38;;;;;;;;;;5043083;28;20691;-71
2023/09/08 01:54:04;;;;;;;6.30;5.80;;;;;;;;;;5038703;28;20439;-70
2023/09/08 01:56:32;;;;;;;6.47;5.88;;;;;;;;;;5039074;28;20465;-70
2023/09/08 01:59:00;;;;;;;6.27;5.77;;;;;;;;;;5043084;28;20467;-71
2023/09/08 02:01:27;;;;;;;5.82;5.40;;;;;;;;;;5022869;28;20530;-71
2023/09/08 02:03:54;;;;;;;6.00;5.40;;;;;;;;;;5026309;28;20435;-70
2023/09/08 02:06:21;;;;;;;6.03;5.53;;;;;;;;;;5023473;28;20431;-71
2023/09/08 02:08:48;;;;;;;6.50;5.90;;;;;;;;;;5026134;28;20422;-71
2023/09/08 02:11:15;;;;;;;6.10;5.50;;;;;;;;;;5027051;28;20421;-70
2023/09/08 02:13:43;;;;;;;6.35;5.85;;;;;;;;;;5026752;28;20434;-71
2023/09/08 02:16:15;;;;;;;6.13;5.53;;;;;;;;;;5026500;28;20414;-71
2023/09/08 02:18:43;;;;;;;5.90;5.40;;;;;;;;;;5018920;28;20453;-72
2023/09/08 02:21:10;;;;;;;5.97;5.43;;;;;;;;;;5025362;28;20422;-71
2023/09/08 02:23:37;;;;;;;6.18;5.57;;;;;;;;;;5026016;28;20433;-73
2023/09/08 02:26:04;;;;;;;6.72;6.15;;;;;;;;;;5026020;28;20454;-72
2023/09/08 02:28:31;;;;;;;6.10;5.60;;;;;;;;;;5025421;28;20419;-72
2023/09/08 02:30:58;;;;;;;6.28;5.68;;;;;;;;;;5026056;28;20422;-72
2023/09/08 02:33:27;;;;;;;6.10;5.50;;;;;;;;;;5026029;28;20434;-73
2023/09/08 02:35:54;;;;;;;6.50;5.90;;;;;;;;;;5026165;28;20477;-72
2023/09/08 02:38:21;;;;;;;6.00;5.50;;;;;;;;;;5026346;28;20415;-72
2023/09/08 02:40:48;;;;;;;6.28;5.78;;;;;;;;;;5016777;28;20411;-73
2023/09/08 02:43:15;;;;;;;6.30;5.80;;;;;;;;;;5024728;28;20415;-71
2023/09/08 02:45:42;;;;;;;6.20;5.60;;;;;;;;;;5025396;28;20976;-72
2023/09/08 02:48:09;;;;;;;6.30;5.80;;;;;;;;;;5025803;28;20463;-71
2023/09/08 02:50:38;;;;;;;6.38;5.70;;;;;;;;;;5025351;28;20429;-71
2023/09/08 02:53:05;;;;;;;6.23;5.63;;;;;;;;;;5025269;28;20426;-71
2023/09/08 02:55:32;;;;;;;6.10;5.60;;;;;;;;;;5025315;28;20418;-71
2023/09/08 02:57:59;;;;;;;6.68;6.07;;;;;;;;;;5025194;28;20415;-71
2023/09/08 03:00:27;;;;;;;6.45;5.85;;;;;;;;;;5023691;28;20876;-71
2023/09/08 03:02:54;;;;;;;6.25;5.75;;;;;;;;;;5024684;28;20435;-70
2023/09/08 03:05:21;;;;;;;6.50;5.90;;;;;;;;;;5026038;28;20430;-72
2023/09/08 03:07:50;;;;;;;5.88;5.38;;;;;;;;;;5024948;28;20522;-73
2023/09/08 03:10:17;;;;;;;6.27;5.77;;;;;;;;;;5025934;28;20415;-73
2023/09/08 03:12:44;;;;;;;6.55;5.95;;;;;;;;;;5024323;28;20415;-73
2023/09/08 03:15:12;;;;;;;5.95;5.45;;;;;;;;;;5024679;28;20426;-72
2023/09/08 03:17:39;;;;;;;6.40;5.90;;;;;;;;;;5024661;28;20427;-71
2023/09/08 03:20:08;;;;;;;6.45;5.85;;;;;;;;;;5024891;28;20931;-72
2023/09/08 03:22:35;;;;;;;6.35;5.75;;;;;;;;;;5018418;28;20469;-72
2023/09/08 03:25:04;;;;;;;6.40;5.80;;;;;;;;;;5024912;28;20422;-72
2023/09/08 03:27:31;;;;;;;6.80;5.97;;;;;;;;;;5024747;28;20431;-70
2023/09/08 03:29:58;;;;;;;7.43;5.90;;;;;;;;;;5024349;28;20431;-72
2023/09/08 03:32:25;;;;;;;5.80;5.30;;;;;;;;;;5024472;28;20430;-72
2023/09/08 03:34:52;;;;;;;6.35;5.75;;;;;;;;;;5024822;28;20427;-72
2023/09/08 03:37:19;;;;;;;5.93;5.43;;;;;;;;;;5023930;28;20423;-72
2023/09/08 03:39:46;;;;;;;6.83;6.20;;;;;;;;;;5023498;28;20418;-72
2023/09/08 03:42:14;;;;;;;6.70;6.10;;;;;;;;;;5023866;28;20431;-72
2023/09/08 03:44:41;;;;;;;6.15;5.65;;;;;;;;;;5024003;28;20423;-72
2023/09/08 03:47:08;;;;;;;6.20;5.60;;;;;;;;;;5023903;28;20773;-72
2023/09/08 03:49:35;;;;;;;6.50;5.90;;;;;;;;;;5024219;28;20422;-71
2023/09/08 03:52:03;;;;;;;6.80;6.10;;;;;;;;;;5024693;28;20423;-72
2023/09/08 03:54:30;;;;;;;5.82;5.32;;;;;;;;;;5023207;28;20427;-72
2023/09/08 03:56:57;;;;;;;6.93;6.32;;;;;;;;;;5024071;28;20776;-71
2023/09/08 03:59:25;;;;;;;6.35;5.75;;;;;;;;;;5024992;28;20896;-72
2023/09/08 04:01:52;;;;;;;6.47;5.88;;;;;;;;;;5020277;28;20438;-72
2023/09/08 04:04:20;;;;;;;6.40;5.90;;;;;;;;;;5021734;28;20435;-72
2023/09/08 04:06:47;;;;;;;6.05;5.55;;;;;;;;;;5029760;28;20517;-72
2023/09/08 04:09:14;;;;;;;6.15;5.60;;;;;;;;;;5038812;28;20442;-72
2023/09/08 04:11:41;;;;;;;6.32;5.82;;;;;;;;;;5032185;28;20426;-72
2023/09/08 04:14:08;;;;;;;6.20;5.60;;;;;;;;;;5023138;28;20419;-72
2023/09/08 04:16:36;;;;;;;6.40;5.90;;;;;;;;;;5030197;28;20475;-72
2023/09/08 04:19:03;;;;;;;6.88;6.18;;;;;;;;;;5028802;28;20442;-72
2023/09/08 04:21:30;;;;;;;7.10;6.40;;;;;;;;;;5022869;28;20918;-72
2023/09/08 04:23:57;;;;;;;9.27;6.73;;;;;;;;;;5028328;28;20632;-72
2023/09/08 04:26:25;;;;;;;8.20;7.18;;;;;;;;;;5039528;28;20520;-72
2023/09/08 04:28:52;;;;;;;10.13;7.30;;;;;;;;;;5026532;28;20453;-72
2023/09/08 04:31:19;;;;;;;9.80;7.80;;;;;;;;;;5017077;28;20530;-72
2023/09/08 04:33:47;;;;;;;9.20;7.70;;;;;;;;;;5022538;28;20564;-72
2023/09/08 04:36:15;;;;;;;9.85;7.07;;;;;;;;;;5023148;28;20425;-72
2023/09/08 04:38:42;;;;;;;9.60;7.47;;;;;;;;;;5037893;28;20475;-72
2023/09/08 04:41:09;;;;;;;8.43;6.72;;;;;;;;;;5035925;28;20420;-72
2023/09/08 04:43:36;;;;;;;7.60;6.57;;;;;;;;;;5020009;28;20448;-72
2023/09/08 04:46:03;;;;;;;7.27;5.77;;;;;;;;;;5013772;28;20776;-72
2023/09/08 04:48:30;;;;;;;6.63;5.95;;;;;;;;;;5021662;28;20533;-72
2023/09/08 04:50:59;;;;;;;6.30;5.70;;;;;;;;;;5022366;28;20419;-72
2023/09/08 04:53:26;;;;;;;8.23;6.70;;;;;;;;;;5021310;28;20458;-72
2023/09/08 04:55:53;;;;;;;7.40;6.50;;;;;;;;;;5027164;28;20493;-71
2023/09/08 04:58:20;;;;;;;7.68;6.68;;;;;;;;;;5026863;28;20521;-72
2023/09/08 05:00:47;;;;;;;8.45;6.90;;;;;;;;;;5020473;28;20461;-73
2023/09/08 05:03:14;;;;;;;7.30;6.60;;;;;;;;;;5025271;28;20482;-73
2023/09/08 05:05:41;;;;;;;6.70;6.10;;;;;;;;;;5025697;28;20423;-73
2023/09/08 05:08:10;;;;;;;7.10;6.40;;;;;;;;;;5025106;28;20445;-72
2023/09/08 05:10:37;;;;;;;7.10;6.40;;;;;;;;;;5019615;28;20472;-73
2023/09/08 05:13:04;;;;;;;7.75;6.65;;;;;;;;;;5026283;28;20439;-73
2023/09/08 05:15:31;;;;;;;9.30;7.50;;;;;;;;;;5023841;28;20778;-73
2023/09/08 05:17:58;;;;;;;9.27;8.27;;;;;;;;;;5019619;28;20876;-73
2023/09/08 05:20:25;;;;;;;12.32;9.85;;;;;;;;;;5026184;28;20438;-73
2023/09/08 05:22:52;;;;;;;13.70;9.70;;;;;;;;;;5026641;28;20461;-72
2023/09/08 05:25:21;;;;;;;12.00;9.90;;;;;;;;;;5023051;28;20900;-73
2023/09/08 05:27:48;;;;;;;9.07;8.13;;;;;;;;;;5020869;28;20745;-74
2023/09/08 05:30:15;;;;;;;9.50;8.07;;;;;;;;;;5022006;28;20438;-74
2023/09/08 05:32:43;;;;;;;8.30;7.47;;;;;;;;;;5017331;28;20446;-73
2023/09/08 05:35:10;;;;;;;7.82;7.10;;;;;;;;;;5017899;28;20474;-71
2023/09/08 05:37:37;;;;;;;9.52;7.20;;;;;;;;;;5023906;28;20491;-73
2023/09/08 05:40:05;;;;;;;9.07;7.43;;;;;;;;;;5023644;28;20529;-73
2023/09/08 05:42:33;;;;;;;8.02;7.18;;;;;;;;;;5016525;28;20487;-73
2023/09/08 05:45:00;;;;;;;8.48;7.68;;;;;;;;;;5025729;28;20435;-73
2023/09/08 05:47:27;;;;;;;8.23;7.20;;;;;;;;;;5022974;28;20430;-73
2023/09/08 05:49:54;;;;;;;7.60;6.78;;;;;;;;;;5025561;28;20799;-73
2023/09/08 05:52:21;;;;;;;6.90;6.30;;;;;;;;;;5025545;28;20899;-73
2023/09/08 05:54:48;;;;;;;7.13;6.45;;;;;;;;;;5023807;28;20453;-73
2023/09/08 05:57:15;;;;;;;6.38;5.80;;;;;;;;;;5023738;28;20431;-73
2023/09/08 05:59:44;;;;;;;7.00;6.00;;;;;;;;;;5024201;28;20450;-73
2023/09/08 06:02:11;;;;;;;6.67;6.03;;;;;;;;;;5015921;28;20785;-73
2023/09/08 06:04:38;;;;;;;8.13;6.10;;;;;;;;;;5023478;28;20415;-73
2023/09/08 06:07:05;;;;;;;6.10;5.60;;;;;;;;;;5024225;28;20533;-73
2023/09/08 06:09:32;;;;;;;6.93;5.80;;;;;;;;;;5024456;28;20539;-73
2023/09/08 06:11:59;;;;;;;6.30;5.70;;;;;;;;;;5025252;28;20419;-72
2023/09/08 06:14:26;;;;;;;7.43;5.30;;;;;;;;;;5024151;28;20415;-73
2023/09/08 06:16:54;;;;;;;5.60;5.10;;;;;;;;;;5024013;28;20527;-73
2023/09/08 06:19:21;;;;;;;5.50;5.10;;;;;;;;;;5024768;28;20434;-73
2023/09/08 06:21:48;;;;;;;6.00;5.40;;;;;;;;;;5025240;28;20431;-73
2023/09/08 06:24:15;;;;;;;6.13;5.63;;;;;;;;;;5017697;28;20440;-74
2023/09/08 06:26:43;;;;;;;6.57;5.50;;;;;;;;;;5018744;28;20438;-73
2023/09/08 06:29:10;;;;;;;5.85;5.25;;;;;;;;;;5024231;28;20431;-73
2023/09/08 06:31:37;;;;;;;6.10;5.50;;;;;;;;;;5021435;28;20848;-73
2023/09/08 06:34:05;;;;;;;5.95;5.05;;;;;;;;;;5024440;28;20422;-73
2023/09/08 06:36:33;;;;;;;5.68;5.18;;;;;;;;;;5024506;28;20872;-73
2023/09/08 06:39:03;;;;;;;5.60;5.10;;;;;;;;;;5024682;28;20446;-72
2023/09/08 06:41:30;;;;;;;5.55;5.05;;;;;;;;;;5024059;28;20446;-73
2023/09/08 06:43:57;;;;;;;5.55;5.05;;;;;;;;;;5024877;28;20538;-73
2023/09/08 06:46:25;;;;;;;5.30;4.90;;;;;;;;;;5022644;28;20653;-73
2023/09/08 06:48:52;;;;;;;7.20;5.30;;;;;;;;;;5024052;28;20477;-73
2023/09/08 06:51:20;;;;;;;5.88;5.38;;;;;;;;;;5019073;28;20430;-73
2023/09/08 06:53:55;;;;;;;5.30;4.80;;;;;;;;;;5023485;28;20423;-73
2023/09/08 06:56:22;;;;;;;8.20;4.85;;;;;;;;;;5024639;28;20493;-73
2023/09/08 06:58:49;;;;;;;6.40;4.90;;;;;;;;;;5014856;28;20415;-73
2023/09/08 07:01:16;;;;;;;5.55;5.15;;;;;;;;;;5024859;28;20483;-73
2023/09/08 07:03:43;;;;;;;5.93;5.20;;;;;;;;;;5022107;28;20453;-73
2023/09/08 07:06:11;;;;;;;5.20;4.70;;;;;;;;;;5023751;28;20441;-73
2023/09/08 07:08:39;;;;;;;5.45;4.80;;;;;;;;;;5014426;28;20641;-74
2023/09/08 07:11:06;;;;;;;6.80;5.20;;;;;;;;;;5016478;28;20427;-73
2023/09/08 07:13:33;;;;;;;5.10;4.60;;;;;;;;;;5018778;28;20472;-73
2023/09/08 07:16:00;;;;;;;5.50;5.00;;;;;;;;;;5023255;28;20435;-74
2023/09/08 07:18:28;;;;;;;5.60;5.10;;;;;;;;;;5015326;28;20763;-73
2023/09/08 07:20:55;;;;;;;5.00;4.60;;;;;;;;;;5020630;28;20431;-73
2023/09/08 07:23:23;;;;;;;5.10;4.60;;;;;;;;;;5021981;28;20470;-73
2023/09/08 07:25:51;;;;;;;5.18;4.68;;;;;;;;;;5015379;28;20425;-73
2023/09/08 07:28:18;;;;;;;5.10;4.70;;;;;;;;;;5020411;28;20442;-70
2023/09/08 07:30:45;;;;;;;5.00;4.50;;;;;;;;;;5023103;28;20442;-70
2023/09/08 07:33:13;;;;;;;4.80;4.40;;;;;;;;;;5031821;28;20433;-71
2023/09/08 07:35:40;;;;;;;5.53;4.90;;;;;;;;;;5027528;28;20997;-72
2023/09/08 07:38:07;;;;;;;4.78;4.38;;;;;;;;;;5024747;28;20422;-71
2023/09/08 07:40:35;;;;;;;4.93;4.50;;;;;;;;;;5023364;28;20430;-70
2023/09/08 07:43:03;;;;;;;5.07;4.60;;;;;;;;;;5023921;28;20435;-72
2023/09/08 07:45:30;;;;;;;4.60;4.20;;;;;;;;;;5024322;28;20419;-70
2023/09/08 07:47:57;;;;;;;5.43;4.30;;;;;;;;;;5024080;28;20836;-71
2023/09/08 07:50:25;;;;;;;8.05;4.80;;;;;;;;;;5022764;28;20457;-72
2023/09/08 07:52:53;;;;;;;4.97;4.57;;;;;;;;;;5024843;28;20414;-72
2023/09/08 07:55:22;;;;;;;4.80;4.20;;;;;;;;;;5020264;28;20882;-72
2023/09/08 07:57:50;;;;;;;4.50;4.10;;;;;;;;;;5023663;28;20457;-71
2023/09/08 08:00:19;;;;;;;5.63;4.60;;;;;;;;;;5063525;22;20423;-68
2023/09/08 08:02:47;;;;;;;4.68;4.28;;;;;;;;;;5036220;28;20441;-67
2023/09/08 08:05:15;;;;;;;5.82;4.20;;;;;;;;;;5031563;28;20526;-70
2023/09/08 08:07:43;;;;;;;4.50;4.10;;;;;;;;;;5030454;28;20431;-70
2023/09/08 08:10:10;;;;;;;5.03;4.55;;;;;;;;;;5013371;28;20413;-70
2023/09/08 08:12:38;;;;;;;5.00;4.05;;;;;;;;;;5009413;28;20910;-70
2023/09/08 08:15:05;;;;;;;4.60;4.20;;;;;;;;;;5012578;28;20906;-69
2023/09/08 08:17:34;;;;;;;4.30;3.90;;;;;;;;;;5015580;28;20436;-69
2023/09/08 08:20:06;;;;;;;4.78;4.20;;;;;;;;;;5005994;28;20432;-69
2023/09/08 08:22:33;;;;;;;4.00;3.70;;;;;;;;;;5010111;28;20846;-69
2023/09/08 08:25:00;;;;;;;4.00;3.60;;;;;;;;;;5006276;28;20953;-70
2023/09/08 08:27:27;;;;;;;3.90;3.50;;;;;;;;;;4999334;28;20938;-69
2023/09/08 08:29:54;;;;;;;4.20;3.90;;;;;;;;;;5009274;28;20423;-69
2023/09/08 08:32:21;;;;;;;4.43;4.03;;;;;;;;;;5009108;28;20440;-70
2023/09/08 08:34:50;;;;;;;4.90;4.00;;;;;;;;;;5020583;28;20430;-68
2023/09/08 08:37:18;;;;;;;4.70;3.60;;;;;;;;;;5015370;28;20417;-69
2023/09/08 08:39:45;;;;;;;4.27;3.87;;;;;;;;;;5010977;28;20421;-70
2023/09/08 08:42:13;;;;;;;3.97;3.67;;;;;;;;;;5011286;28;20486;-69
2023/09/08 08:44:40;;;;;;;5.30;3.72;;;;;;;;;;5009170;28;20776;-72
2023/09/08 08:47:08;;;;;;;4.30;3.90;;;;;;;;;;5007315;28;20433;-71
2023/09/08 08:49:35;;;;;;;4.40;4.00;;;;;;;;;;5005483;28;20420;-71
2023/09/08 08:52:07;;;;;;;4.70;3.80;;;;;;;;;;5008532;28;20436;-70
2023/09/08 08:54:35;;;;;;;4.10;3.70;;;;;;;;;;5005878;28;21129;-70
2023/09/08 08:57:03;;;;;;;4.13;3.80;;;;;;;;;;5008473;28;20415;-71
2023/09/08 08:59:30;;;;;;;4.30;3.90;;;;;;;;;;5008515;28;20442;-71
2023/09/08 09:01:57;;;;;;;3.85;3.55;;;;;;;;;;5001889;28;20816;-69
2023/09/08 09:04:25;;;;;;;4.20;3.80;;;;;;;;;;5014316;28;20623;-71
2023/09/08 09:06:52;;;;;;;4.10;3.33;;;;;;;;;;5002447;28;20436;-71
2023/09/08 09:09:21;;;;;;;3.83;3.42;;;;;;;;;;5007225;28;20440;-71
2023/09/08 09:11:48;;;;;;;3.92;3.63;;;;;;;;;;5007331;28;20878;-71
2023/09/08 09:14:17;;;;;;;4.00;3.70;;;;;;;;;;5009058;28;20439;-69
2023/09/08 09:16:44;;;;;;;4.10;3.70;;;;;;;;;;5008729;28;20482;-71
2023/09/08 09:19:18;;;;;;;3.85;3.55;;;;;;;;;;5014575;28;20410;-71
2023/09/08 09:21:47;;;;;;;3.83;3.53;;;;;;;;;;5008490;28;20436;-70
2023/09/08 09:24:17;;;;;;;5.22;4.07;;;;;;;;;;5008878;28;21129;-71
2023/09/08 09:26:46;;;;;;;4.30;3.90;;;;;;;;;;5006069;28;20895;-71
2023/09/08 09:29:14;;;;;;;5.07;3.70;;;;;;;;;;5002800;28;20428;-68
2023/09/08 09:31:51;;;;;;;5.05;3.92;;;;;;;;;;5018141;28;20414;-70
2023/09/08 09:34:18;;;;;;;4.00;3.65;;;;;;;;;;5011367;28;20432;-70
2023/09/08 09:36:48;;;;;;;5.50;4.60;;;;;;;;;;5005144;28;20442;-70
2023/09/08 09:39:15;;;;;;;4.90;4.50;;;;;;;;;;5009032;28;20930;-71
2023/09/08 09:41:42;;;;;;;5.20;3.90;;;;;;;;;;5015325;28;20413;-70
2023/09/08 09:44:10;;;;;;;4.97;4.57;;;;;;;;;;5012792;28;20408;-71
2023/09/08 09:46:38;;;;;;;4.90;4.40;;;;;;;;;;5024023;28;20440;-71
2023/09/08 09:49:05;;;;;;;3.95;3.65;;;;;;;;;;5011984;28;20918;-70
2023/09/08 09:51:32;;;;;;;4.20;3.80;;;;;;;;;;5007758;28;20439;-71
2023/09/08 09:53:59;;;;;;;3.90;3.50;;;;;;;;;;5015376;28;20436;-69
2023/09/08 09:56:27;;;;;;;3.97;3.53;;;;;;;;;;5022089;28;20447;-72
2023/09/08 09:58:54;;;;;;;4.45;3.53;;;;;;;;;;5008192;28;20432;-70
2023/09/08 10:01:24;;;;;;;3.80;3.50;;;;;;;;;;5026324;28;20466;-70
2023/09/08 10:03:51;;;;;;;3.78;3.47;;;;;;;;;;5014394;28;20540;-68
2023/09/08 10:06:21;;;;;;;5.60;3.63;;;;;;;;;;5012512;28;20530;-71
2023/09/08 10:08:48;;;;;;;3.53;3.22;;;;;;;;;;5016278;28;20463;-70
2023/09/08 10:11:16;;;;;;;4.07;3.78;;;;;;;;;;5023912;28;20445;-72
2023/09/08 10:13:44;;;;;;;5.10;3.60;;;;;;;;;;5017407;28;20502;-71
2023/09/08 10:16:14;;;;;;;4.17;3.50;;;;;;;;;;5011231;28;21243;-69
2023/09/08 10:18:44;;;;;;;3.50;3.20;;;;;;;;;;5013646;28;20791;-69
2023/09/08 10:21:11;;;;;;;4.00;3.60;;;;;;;;;;5023657;28;20440;-70
2023/09/08 10:23:42;;;;;;;4.90;3.40;;;;;;;;;;5012620;28;20440;-71
2023/09/08 10:26:11;;;;;;;3.75;3.30;;;;;;;;;;5024374;28;20433;-72
2023/09/08 10:28:38;;;;;;;3.80;3.10;;;;;;;;;;5040226;28;20434;-75
2023/09/08 10:31:06;;;;;;;3.80;3.50;;;;;;;;;;5026922;28;20423;-71
2023/09/08 10:33:34;;;;;;;3.30;2.97;;;;;;;;;;5032685;28;20417;-70
2023/09/08 10:36:04;;;;;;;4.32;3.30;;;;;;;;;;5023851;28;20427;-70
2023/09/08 10:38:33;;;;;;;4.10;3.10;;;;;;;;;;5014483;28;20987;-70
2023/09/08 10:41:15;;;;;;;3.80;3.40;;;;;;;;;;5012935;28;20428;-70
2023/09/08 10:43:43;;;;;;;4.53;3.40;;;;;;;;;;4998414;28;20420;-70
2023/09/08 10:46:11;;;;;;;4.10;2.90;;;;;;;;;;5019353;28;20432;-71
2023/09/08 10:48:42;;;;;;;3.95;3.55;;;;;;;;;;5005639;28;20435;-71
2023/09/08 10:51:14;;;;;;;3.50;3.20;;;;;;;;;;5011917;28;20440;-74
2023/09/08 10:53:41;;;;;;;3.53;3.20;;;;;;;;;;5012374;28;20436;-73
2023/09/08 10:56:08;;;;;;;4.18;3.30;;;;;;;;;;5013033;28;20446;-75
2023/09/08 10:58:38;;;;;;;4.72;3.13;;;;;;;;;;5002230;28;20416;-74
2023/09/08 11:01:06;;;;;;;3.50;3.20;;;;;;;;;;4999845;28;20440;-74
2023/09/08 11:03:44;;;;;;;3.38;3.08;;;;;;;;;;5012461;28;20475;-73
2023/09/08 11:06:13;;;;;;;3.80;3.50;;;;;;;;;;5008015;28;20806;-76
2023/09/08 11:08:42;;;;;;;3.80;3.40;;;;;;;;;;5005465;28;20432;-73
2023/09/08 11:11:09;;;;;;;3.97;3.60;;;;;;;;;;5001710;28;20420;-75
2023/09/08 11:13:36;;;;;;;4.30;3.40;;;;;;;;;;5011385;28;20420;-74
2023/09/08 11:16:03;;;;;;;3.40;3.20;;;;;;;;;;5017133;28;20440;-74
2023/09/08 11:18:31;;;;;;;4.03;3.25;;;;;;;;;;5017102;28;20416;-74
2023/09/08 11:20:58;;;;;;;3.30;3.00;;;;;;;;;;5021259;28;20479;-75
2023/09/08 11:23:27;;;;;;;3.53;3.23;;;;;;;;;;5015048;28;20436;-75
2023/09/08 11:25:54;;;;;;;3.17;2.87;;;;;;;;;;5012502;28;20423;-74
2023/09/08 11:28:22;;;;;;;3.20;2.90;;;;;;;;;;5023577;28;20442;-74
2023/09/08 11:30:50;;;;;;;3.10;2.90;;;;;;;;;;5009745;28;20420;-74
2023/09/08 11:33:17;;;;;;;3.50;2.90;;;;;;;;;;5006355;28;20427;-75
2023/09/08 11:35:46;;;;;;;3.00;2.80;;;;;;;;;;5009680;28;20508;-74
2023/09/08 11:38:14;;;;;;;3.10;2.90;;;;;;;;;;5009406;28;20415;-73
2023/09/08 11:40:42;;;;;;;3.00;2.70;;;;;;;;;;5017363;28;20436;-72
2023/09/08 11:43:09;;;;;;;3.10;2.80;;;;;;;;;;5003777;28;20788;-76
2023/09/08 11:45:37;;;;;;;4.60;2.90;;;;;;;;;;4996087;28;20426;-76
2023/09/08 11:48:05;;;;;;;2.85;2.55;;;;;;;;;;5007883;28;20422;-74
2023/09/08 11:50:32;;;;;;;3.10;2.80;;;;;;;;;;5008379;28;20433;-76
2023/09/08 11:53:00;;;;;;;3.10;2.80;;;;;;;;;;5010583;28;20459;-76
2023/09/08 11:55:27;;;;;;;3.10;2.75;;;;;;;;;;5021925;28;20430;-76
2023/09/08 11:57:57;;;;;;;3.90;2.77;;;;;;;;;;5022595;28;20436;-76
2023/09/08 12:00:25;;;;;;;3.00;2.67;;;;;;;;;;5007416;28;20432;-74
2023/09/08 12:02:53;;;;;;;3.10;2.50;;;;;;;;;;5009164;28;20437;-74
2023/09/08 12:05:23;;;;;;;3.10;2.78;;;;;;;;;;5022334;28;20401;-75
2023/09/08 12:07:51;;;;;;;3.25;2.80;;;;;;;;;;5024826;28;20432;-74
2023/09/08 12:10:18;;;;;;;3.35;2.70;;;;;;;;;;5015647;28;20436;-74
2023/09/08 12:12:46;;;;;;;2.90;2.30;;;;;;;;;;5004429;28;20420;-74
2023/09/08 12:15:30;;;;;;;2.90;2.70;;;;;;;;;;5007657;28;20444;-75
2023/09/08 12:17:58;;;;;;;2.45;2.25;;;;;;;;;;5009882;28;20412;-76
2023/09/08 12:20:25;;;;;;;2.50;2.30;;;;;;;;;;5008741;28;20420;-76
2023/09/08 12:22:53;;;;;;;2.60;2.40;;;;;;;;;;5024204;28;20416;-74
2023/09/08 12:25:20;;;;;;;2.80;2.60;;;;;;;;;;5021478;28;20465;-75
2023/09/08 12:27:51;;;;;;;3.00;2.80;;;;;;;;;;5020640;28;20436;-74
2023/09/08 12:30:20;;;;;;;2.90;2.70;;;;;;;;;;5020023;28;20425;-75
2023/09/08 12:32:48;;;;;;;2.90;2.60;;;;;;;;;;5011235;28;20425;-76
2023/09/08 12:35:21;;;;;;;3.20;2.90;;;;;;;;;;5015521;28;20971;-75
2023/09/08 12:37:48;;;;;;;2.70;2.50;;;;;;;;;;5014954;28;20431;-76
2023/09/08 12:40:16;;;;;;;3.00;2.60;;;;;;;;;;5016296;28;20425;-74
2023/09/08 12:42:43;;;;;;;2.55;2.30;;;;;;;;;;5007132;28;20465;-74
2023/09/08 12:45:10;;;;;;;2.60;2.40;;;;;;;;;;5006017;28;20427;-76
2023/09/08 12:47:38;;;;;;;2.67;2.25;;;;;;;;;;5009336;28;20417;-76
2023/09/08 12:50:06;;;;;;;3.22;2.50;;;;;;;;;;5021823;28;20439;-76
2023/09/08 12:52:33;;;;;;;2.60;2.17;;;;;;;;;;5015636;28;20424;-76
2023/09/08 12:55:00;;;;;;;2.60;2.40;;;;;;;;;;4996117;28;20445;-77
2023/09/08 12:57:27;;;;;;;2.50;2.40;;;;;;;;;;5010385;28;20440;-75
2023/09/08 12:59:54;;;;;;;2.30;2.20;;;;;;;;;;5006439;28;20779;-76
2023/09/08 13:02:21;;;;;;;2.57;2.47;;;;;;;;;;5009592;28;20412;-76
2023/09/08 13:04:50;;;;;;;2.50;2.30;;;;;;;;;;5008167;28;20433;-76
2023/09/08 13:07:17;;;;;;;2.80;2.50;;;;;;;;;;5010272;28;20517;-76
2023/09/08 13:09:44;;;;;;;2.40;2.20;;;;;;;;;;5005986;28;20440;-77
2023/09/08 13:12:12;;;;;;;2.50;2.30;;;;;;;;;;5004211;28;20420;-77
2023/09/08 13:14:39;;;;;;;2.55;2.35;;;;;;;;;;5019207;28;20419;-76
2023/09/08 13:17:06;;;;;;;2.50;2.30;;;;;;;;;;5020217;28;20786;-77
2023/09/08 13:19:33;;;;;;;2.47;2.30;;;;;;;;;;5034331;28;20422;-77
2023/09/08 13:22:02;;;;;;;2.30;2.20;;;;;;;;;;5016420;28;20455;-75
2023/09/08 13:24:29;;;;;;;2.60;2.40;;;;;;;;;;5012897;28;20787;-77
2023/09/08 13:26:56;;;;;;;2.45;2.30;;;;;;;;;;5017492;28;20440;-76
2023/09/08 13:29:23;;;;;;;2.40;2.20;;;;;;;;;;5013965;28;20433;-76
2023/09/08 13:31:50;;;;;;;2.10;2.00;;;;;;;;;;5023408;28;20422;-76
2023/09/08 13:34:17;;;;;;;2.40;2.20;;;;;;;;;;5011227;28;20432;-76
2023/09/08 13:36:44;;;;;;;2.08;1.98;;;;;;;;;;5008792;28;20448;-76
2023/09/08 13:39:12;;;;;;;2.35;2.15;;;;;;;;;;5007345;28;20432;-75
2023/09/08 13:41:47;;;;;;;2.70;2.10;;;;;;;;;;5019071;28;20424;-77
2023/09/08 13:44:14;;;;;;;2.70;2.47;;;;;;;;;;5023081;28;20472;-76
2023/09/08 13:46:41;;;;;;;2.00;1.90;;;;;;;;;;5014273;28;20806;-76
2023/09/08 13:49:08;;;;;;;2.15;2.05;;;;;;;;;;5014471;28;20776;-75
2023/09/08 13:51:35;;;;;;;1.90;1.80;;;;;;;;;;5011150;28;20463;-75
2023/09/08 13:54:03;;;;;;;1.92;1.83;;;;;;;;;;5022959;28;20893;-76
2023/09/08 13:56:31;;;;;;;1.80;1.70;;;;;;;;;;5013572;28;20433;-76
2023/09/08 13:58:58;;;;;;;1.90;1.80;;;;;;;;;;5039609;22;20412;-74
2023/09/08 14:01:27;;;;;;;2.00;1.70;;;;;;;;;;5040432;28;20429;-76
2023/09/08 14:03:55;;;;;;;1.80;1.70;;;;;;;;;;5045556;28;20425;-75
2023/09/08 14:06:22;;;;;;;2.00;1.90;;;;;;;;;;5044789;28;20843;-75
2023/09/08 14:08:49;;;;;;;1.90;1.80;;;;;;;;;;5038035;28;20429;-75
2023/09/08 14:11:17;;;;;;;1.90;1.60;;;;;;;;;;5021378;28;20836;-76
2023/09/08 14:13:45;;;;;;;2.00;1.80;;;;;;;;;;5035146;28;20409;-75
2023/09/08 14:16:12;;;;;;;1.88;1.77;;;;;;;;;;5015264;28;20411;-74
2023/09/08 14:18:39;;;;;;;1.80;1.70;;;;;;;;;;5025349;28;20443;-75
2023/09/08 14:21:07;;;;;;;1.77;1.67;;;;;;;;;;5028681;28;20560;-75
2023/09/08 14:23:34;;;;;;;1.40;1.40;;;;;;;;;;5025969;28;20418;-75
2023/09/08 14:26:02;;;;;;;2.00;1.80;;;;;;;;;;5022308;28;20562;-75
2023/09/08 14:28:31;;;;;;;2.03;1.90;;;;;;;;;;5035648;28;20948;-75
2023/09/08 14:31:00;;;;;;;2.40;2.30;;;;;;;;;;5014151;28;20437;-75
2023/09/08 14:33:27;;;;;;;2.00;1.90;;;;;;;;;;5017619;28;20435;-75
2023/09/08 14:35:55;;;;;;;2.03;1.92;;;;;;;;;;5014750;28;20541;-75
2023/09/08 14:38:23;;;;;;;2.10;2.00;;;;;;;;;;5024384;28;20515;-74
2023/09/08 14:40:56;;;;;;;2.00;1.90;;;;;;;;;;5016214;28;20906;-73
2023/09/08 14:43:23;;;;;;;1.80;1.70;;;;;;;;;;5025138;28;20939;-73
2023/09/08 14:45:51;;;;;;;1.90;1.80;;;;;;;;;;5025281;28;20437;-73
2023/09/08 14:48:19;;;;;;;1.80;1.70;;;;;;;;;;5025304;28;20928;-75
2023/09/08 14:50:46;;;;;;;1.90;1.90;;;;;;;;;;5013451;28;20454;-73
2023/09/08 14:53:13;;;;;;;2.20;2.00;;;;;;;;;;5022254;28;20430;-73